createdAt,value
2023-03-20T06:20:25.770Z,63.47
2023-03-20T06:23:03.358Z,59.83
2023-03-20T06:25:30.498Z,64.20
2023-03-20T06:27:57.959Z,70.20
2023-03-20T06:30:24.866Z,74.27
2023-03-20T06:32:51.906Z,69.13
2023-03-20T06:35:20.569Z,68.83
2023-03-20T06:37:49.688Z,65.40
2023-03-20T06:40:25.357Z,71.77
2023-03-20T06:42:53.272Z,64.93
2023-03-20T06:45:22.714Z,65.47
2023-03-20T06:47:56.116Z,68.13
2023-03-20T06:50:23.244Z,66.27
2023-03-20T06:52:51.242Z,72.90
2023-03-20T06:55:37.162Z,68.57
2023-03-20T06:58:05.439Z,65.00
2023-03-20T07:00:34.472Z,76.23
2023-03-20T07:03:05.581Z,71.93
2023-03-20T07:05:32.812Z,67.80
2023-03-20T07:08:01.806Z,75.30
2023-03-20T07:10:28.943Z,74.10
2023-03-20T07:12:56.797Z,74.10
2023-03-20T07:15:24.819Z,78.60
2023-03-20T07:17:51.860Z,77.40
2023-03-20T07:20:19.211Z,72.03
2023-03-20T07:22:48.202Z,72.83
2023-03-20T07:25:35.699Z,82.90
2023-03-20T07:28:09.321Z,73.33
2023-03-20T07:30:39.269Z,76.23
2023-03-20T07:33:06.505Z,75.78
2023-03-20T07:35:35.019Z,80.50
2023-03-20T07:38:02.558Z,81.37
2023-03-20T07:40:29.786Z,82.07
2023-03-20T07:43:01.355Z,79.63
2023-03-20T07:45:46.761Z,78.27
2023-03-20T07:48:13.847Z,80.87
2023-03-20T07:50:40.881Z,84.63
2023-03-20T07:53:07.996Z,95.43
2023-03-20T07:55:35.085Z,103.33
2023-03-20T07:58:02.718Z,81.33
2023-03-20T08:00:30.063Z,92.43
2023-03-20T08:02:57.270Z,80.85
2023-03-20T08:05:24.884Z,93.63
2023-03-20T08:07:52.257Z,88.03
2023-03-20T08:10:19.277Z,92.03
2023-03-20T08:12:46.334Z,80.53
2023-03-20T08:15:13.688Z,80.40
2023-03-20T08:17:44.760Z,64.90
2023-03-20T08:20:13.614Z,68.22
2023-03-20T08:22:41.407Z,70.47
2023-03-20T08:25:09.430Z,64.68
2023-03-20T08:27:38.553Z,62.88
2023-03-20T08:30:05.876Z,70.57
2023-03-20T08:32:33.402Z,64.18
2023-03-20T08:35:00.299Z,60.10
2023-03-20T08:37:28.113Z,59.88
2023-03-20T08:39:54.986Z,62.60
2023-03-20T08:42:22.058Z,57.50
2023-03-20T08:44:49.214Z,59.00
2023-03-20T08:47:16.256Z,62.10
2023-03-20T08:49:43.760Z,55.90
2023-03-20T08:52:10.929Z,62.83
2023-03-20T08:54:37.806Z,53.45
2023-03-20T08:57:04.824Z,57.05
2023-03-20T08:59:31.751Z,47.88
2023-03-20T09:01:58.778Z,45.45
2023-03-20T09:04:25.906Z,48.17
2023-03-20T09:06:52.849Z,48.95
2023-03-20T09:09:21.623Z,44.35
2023-03-20T09:11:48.828Z,49.33
2023-03-20T09:14:16.148Z,49.45
2023-03-20T09:16:43.323Z,46.15
2023-03-20T09:19:10.344Z,42.72
2023-03-20T09:21:37.283Z,45.33
2023-03-20T09:24:04.571Z,45.70
2023-03-20T09:26:31.512Z,43.15
2023-03-20T09:28:58.540Z,40.42
2023-03-20T09:31:25.614Z,39.72
2023-03-20T09:33:53.614Z,45.47
2023-03-20T09:36:20.904Z,47.20
2023-03-20T09:38:47.869Z,41.75
2023-03-20T09:41:21.957Z,41.42
2023-03-20T09:44:00.923Z,46.25
2023-03-20T09:46:36.734Z,40.47
2023-03-20T09:49:30.679Z,37.95
2023-03-20T09:52:00.536Z,49.63
2023-03-20T09:54:43.542Z,37.25
2023-03-20T09:57:25.651Z,42.65
2023-03-20T09:59:57.569Z,40.17
2023-03-20T10:02:52.820Z,35.33
2023-03-20T10:05:35.250Z,38.58
2023-03-20T10:08:04.930Z,39.33
2023-03-20T10:10:59.905Z,38.42
2023-03-20T10:13:52.613Z,40.22
2023-03-20T10:16:45.218Z,38.13
2023-03-20T10:19:30.182Z,43.17
2023-03-20T10:22:07.929Z,39.67
2023-03-20T10:24:43.946Z,37.20
2023-03-20T10:27:34.134Z,38.67
2023-03-20T10:30:22.988Z,32.95
2023-03-20T10:33:15.959Z,39.92
2023-03-20T10:35:57.615Z,43.45
2023-03-20T10:38:36.611Z,44.08
2023-03-20T10:41:09.693Z,51.45
2023-03-20T10:43:41.628Z,48.63
2023-03-20T10:46:16.276Z,49.08
2023-03-20T10:48:50.968Z,46.80
2023-03-20T10:51:24.795Z,50.08
2023-03-20T10:53:59.686Z,46.60
2023-03-20T10:56:37.877Z,57.40
2023-03-20T10:59:11.093Z,52.85
2023-03-20T11:01:37.975Z,60.88
2023-03-20T11:04:05.169Z,68.43
2023-03-20T11:06:37.679Z,67.45
2023-03-20T11:09:18.789Z,66.35
2023-03-20T11:11:52.293Z,70.43
2023-03-20T11:14:22.871Z,59.40
2023-03-20T11:16:52.683Z,71.60
2023-03-20T11:19:22.111Z,59.05
2023-03-20T11:21:57.875Z,56.28
2023-03-20T11:24:44.637Z,53.60
2023-03-20T11:27:19.273Z,57.80
2023-03-20T11:29:49.829Z,63.72
2023-03-20T11:32:22.918Z,55.03
2023-03-20T11:34:49.911Z,58.20
2023-03-20T11:37:29.492Z,66.35
2023-03-20T11:40:00.447Z,58.03
2023-03-20T11:42:30.636Z,84.70
2023-03-20T11:44:59.933Z,62.95
2023-03-20T11:47:28.834Z,60.63
2023-03-20T11:50:01.031Z,57.55
2023-03-20T11:52:37.126Z,61.65
2023-03-20T11:55:08.178Z,53.97
2023-03-20T11:57:39.647Z,53.08
2023-03-20T12:00:23.134Z,49.95
2023-03-20T12:02:53.108Z,53.33
2023-03-20T12:05:36.735Z,63.33
2023-03-20T12:08:25.197Z,54.28
2023-03-20T12:10:59.092Z,54.92
2023-03-20T12:13:35.827Z,52.83
2023-03-20T12:16:15.839Z,54.38
2023-03-20T12:18:49.027Z,50.83
2023-03-20T12:21:27.201Z,49.72
2023-03-20T12:24:02.926Z,49.40
2023-03-20T12:26:56.229Z,50.05
2023-03-20T12:29:46.509Z,59.90
2023-03-20T12:32:21.809Z,58.78
2023-03-20T12:35:17.452Z,54.28
2023-03-20T12:37:44.417Z,53.97
2023-03-20T12:40:20.567Z,48.55
2023-03-20T12:43:01.966Z,54.38
2023-03-20T12:46:04.139Z,56.22
2023-03-20T12:48:31.308Z,56.83
2023-03-20T12:51:06.774Z,55.17
2023-03-20T12:53:57.995Z,56.03
2023-03-20T12:56:46.684Z,49.63
2023-03-20T12:59:41.072Z,57.75
2023-03-20T13:02:33.730Z,69.97
2023-03-20T13:05:12.447Z,60.90
2023-03-20T13:08:12.280Z,61.55
2023-03-20T13:11:10.240Z,56.75
2023-03-20T13:13:51.045Z,49.95
2023-03-20T13:16:37.198Z,57.38
2023-03-20T13:19:32.659Z,57.92
2023-03-20T13:22:26.869Z,52.28
2023-03-20T13:25:18.422Z,53.13
2023-03-20T13:27:59.358Z,49.20
2023-03-20T13:30:44.899Z,41.90
2023-03-20T13:33:26.855Z,46.10
2023-03-20T13:36:23.091Z,44.28
2023-03-20T13:38:55.979Z,46.85
2023-03-20T13:41:24.741Z,55.88
2023-03-20T13:44:01.180Z,50.92
2023-03-20T13:46:46.114Z,59.30
2023-03-20T13:49:38.594Z,58.15
2023-03-20T13:52:17.570Z,58.30
2023-03-20T13:54:59.001Z,56.40
2023-03-20T13:57:29.016Z,60.55
2023-03-20T14:00:29.211Z,64.05
2023-03-20T14:02:57.478Z,61.60
2023-03-20T14:05:26.582Z,68.82
2023-03-20T14:07:58.186Z,67.45
2023-03-20T14:10:24.995Z,66.20
2023-03-20T14:13:01.267Z,66.68
2023-03-20T14:15:33.204Z,59.05
2023-03-20T14:18:05.559Z,58.13
2023-03-20T14:20:38.427Z,56.10
2023-03-20T14:23:07.365Z,56.78
2023-03-20T14:25:40.600Z,53.75
2023-03-20T14:28:13.743Z,54.10
2023-03-20T14:30:43.744Z,54.13
2023-03-20T14:33:13.514Z,51.28
2023-03-20T14:35:52.470Z,53.28
2023-03-20T14:38:53.677Z,49.70
2023-03-20T14:41:31.504Z,47.72
2023-03-20T14:44:58.692Z,55.00
2023-03-20T14:47:39.109Z,49.53
2023-03-20T14:50:32.180Z,44.40
2023-03-20T14:52:59.241Z,49.35
2023-03-20T14:55:28.115Z,84.13
2023-03-20T14:57:57.189Z,45.47
2023-03-20T15:00:30.893Z,52.17
2023-03-20T15:03:14.082Z,49.58
2023-03-20T15:05:42.280Z,48.63
2023-03-20T15:08:25.782Z,42.30
2023-03-20T15:10:58.418Z,50.70
2023-03-20T15:13:27.142Z,51.47
2023-03-20T15:16:08.916Z,57.10
2023-03-20T15:18:41.046Z,42.90
2023-03-20T15:21:19.591Z,44.88
2023-03-20T15:23:48.055Z,40.40
2023-03-20T15:26:17.065Z,30.48
2023-03-20T15:28:46.385Z,28.27
2023-03-20T15:31:26.337Z,22.90
2023-03-20T15:33:54.786Z,20.58
2023-03-20T15:36:26.161Z,11.60
2023-03-20T15:38:53.409Z,15.87
2023-03-20T15:41:36.314Z,14.30
2023-03-20T15:44:15.760Z,14.03
2023-03-20T15:47:00.121Z,18.10
2023-03-20T15:49:28.854Z,27.77
2023-03-20T15:51:59.341Z,26.05
2023-03-20T15:54:26.615Z,24.55
2023-03-20T15:56:56.221Z,27.33
2023-03-20T15:59:27.849Z,27.73
2023-03-20T16:01:58.072Z,26.43
2023-03-20T16:04:27.096Z,28.30
2023-03-20T16:07:00.843Z,28.13
2023-03-20T16:09:28.420Z,27.43
2023-03-20T16:12:03.431Z,27.87
2023-03-20T16:14:32.542Z,22.87
2023-03-20T16:17:02.241Z,25.13
2023-03-20T16:19:29.826Z,20.60
2023-03-20T16:22:00.349Z,17.07
2023-03-20T16:24:31.296Z,19.80
2023-03-20T16:26:58.645Z,18.10
2023-03-20T16:29:28.391Z,24.30
2023-03-20T16:32:04.257Z,18.43
2023-03-20T16:34:35.792Z,15.00
2023-03-20T16:37:27.408Z,13.73
2023-03-20T16:40:15.028Z,13.00
2023-03-20T16:42:42.916Z,12.83
2023-03-20T16:45:29.253Z,10.80
2023-03-20T16:48:13.685Z,11.37
2023-03-20T16:50:43.287Z,9.80
2023-03-20T16:53:14.160Z,10.93
2023-03-20T16:55:50.534Z,11.57
2023-03-20T16:58:22.083Z,12.80
2023-03-20T17:00:51.865Z,11.23
2023-03-20T17:03:25.558Z,10.60
2023-03-20T17:05:59.053Z,13.13
2023-03-20T17:08:31.140Z,12.40
2023-03-20T17:11:04.635Z,12.20
2023-03-20T17:13:31.767Z,12.70
2023-03-20T17:15:59.634Z,13.83
2023-03-20T17:18:27.991Z,15.80
2023-03-20T17:20:54.866Z,15.57
2023-03-20T17:23:22.971Z,14.63
2023-03-20T17:25:51.013Z,16.30
2023-03-20T17:28:21.280Z,15.27
2023-03-20T17:30:50.093Z,19.60
2023-03-20T17:33:19.074Z,16.97
2023-03-20T17:35:47.921Z,21.67
2023-03-20T17:38:22.522Z,21.17
2023-03-20T17:40:50.650Z,24.13
2023-03-20T17:43:20.720Z,27.70
2023-03-20T17:45:48.394Z,27.93
2023-03-20T17:48:21.041Z,29.33
2023-03-20T17:50:51.128Z,32.13
2023-03-20T17:53:21.294Z,33.73
2023-03-20T17:55:48.253Z,31.87
2023-03-20T17:58:17.190Z,37.63
2023-03-20T18:00:44.299Z,38.53
2023-03-20T18:03:11.766Z,39.03
2023-03-20T18:05:39.670Z,48.57
2023-03-20T18:08:13.571Z,41.60
2023-03-20T18:10:40.860Z,45.00
2023-03-20T18:13:08.077Z,48.57
2023-03-20T18:15:35.142Z,46.67
2023-03-20T18:18:02.138Z,44.73
2023-03-20T18:20:32.536Z,47.27
2023-03-20T18:22:59.757Z,48.50
2023-03-20T18:25:27.514Z,46.63
2023-03-20T18:27:55.956Z,53.77
2023-03-20T18:30:27.710Z,53.50
2023-03-20T18:32:54.646Z,58.93
2023-03-20T18:35:21.601Z,56.83
2023-03-20T18:37:48.592Z,58.07
2023-03-20T18:40:19.818Z,54.80
2023-03-20T18:42:46.992Z,56.47
2023-03-20T18:45:14.475Z,60.77
2023-03-20T18:47:41.569Z,63.63
2023-03-20T18:50:36.527Z,57.90
2023-03-20T18:53:05.546Z,61.63
2023-03-20T18:55:33.717Z,64.97
2023-03-20T18:58:03.835Z,60.40
2023-03-20T19:00:38.170Z,61.70
2023-03-20T19:03:06.280Z,58.90
2023-03-20T19:05:33.709Z,64.23
2023-03-20T19:08:01.191Z,70.03
2023-03-20T19:10:37.858Z,64.13
2023-03-20T19:13:07.536Z,64.30
2023-03-20T19:15:36.923Z,66.23
2023-03-20T19:18:05.625Z,65.93
2023-03-20T19:20:58.624Z,67.93
2023-03-20T19:23:28.615Z,64.00
2023-03-20T19:25:56.022Z,72.70
2023-03-20T19:28:39.057Z,68.03
2023-03-20T19:31:07.960Z,75.03
2023-03-20T19:33:35.113Z,68.50
2023-03-20T19:36:04.349Z,64.50
2023-03-20T19:38:32.514Z,68.17
2023-03-20T19:41:00.287Z,69.13
2023-03-20T19:43:28.951Z,65.90
2023-03-20T19:45:58.737Z,66.50
2023-03-20T19:48:46.505Z,68.80
2023-03-20T19:51:26.619Z,65.53
2023-03-20T19:53:54.307Z,71.63
2023-03-20T19:56:23.322Z,65.53
2023-03-20T19:58:50.787Z,71.83
2023-03-20T20:01:21.449Z,74.70
2023-03-20T20:03:53.685Z,72.37
2023-03-20T20:06:22.526Z,72.43
2023-03-20T20:08:52.675Z,73.73
2023-03-20T20:11:20.865Z,69.37
2023-03-20T20:14:07.496Z,70.70
2023-03-20T20:16:36.699Z,78.50
2023-03-20T20:19:03.974Z,73.47
2023-03-20T20:24:18.145Z,77.53
2023-03-20T20:27:11.519Z,75.23
2023-03-20T20:29:38.942Z,81.07
2023-03-20T20:32:06.052Z,79.13
2023-03-20T20:35:30.798Z,75.00
2023-03-20T20:40:12.663Z,75.67
2023-03-20T20:42:40.556Z,77.07
2023-03-20T20:45:09.463Z,67.67
2023-03-20T20:47:36.737Z,64.17
2023-03-20T20:50:04.194Z,65.73
2023-03-20T20:52:34.447Z,63.73
2023-03-20T20:55:19.346Z,64.53
2023-03-20T20:57:48.792Z,64.27
2023-03-20T21:00:16.654Z,60.97
2023-03-20T21:02:43.825Z,61.50
2023-03-20T21:05:13.890Z,56.93
2023-03-20T21:07:46.311Z,53.40
2023-03-20T21:10:16.758Z,52.63
2023-03-20T21:12:58.075Z,56.10
2023-03-20T21:15:26.811Z,56.80
2023-03-20T21:18:01.010Z,46.23
2023-03-20T21:20:29.951Z,43.17
2023-03-20T21:22:56.927Z,42.03
2023-03-20T21:25:38.698Z,34.43
2023-03-20T21:28:07.513Z,38.63
2023-03-20T21:30:34.602Z,34.57
2023-03-20T21:33:01.840Z,31.07
2023-03-20T21:35:28.835Z,32.47
2023-03-20T21:40:43.676Z,32.13
2023-03-20T21:43:11.305Z,33.60
2023-03-20T21:49:04.132Z,35.43
2023-03-20T21:57:35.054Z,39.40
2023-03-20T22:02:30.949Z,41.03
2023-03-20T22:08:26.968Z,45.47
2023-03-20T22:11:34.972Z,44.27
2023-03-20T22:22:37.406Z,43.47
2023-03-20T22:25:19.787Z,43.43
2023-03-20T22:28:00.877Z,47.53
2023-03-20T22:31:08.999Z,42.37
2023-03-20T22:36:36.048Z,45.00
